sensor_id;sensor_type;location;lat;lon;timestamp;pressure;altitude;pressure_sealevel;temperature;humidity
27864;BME280;15980;51.092;13.916;2022-11-30T00:04:03;99214.94;;;3.89;80.88
27864;BME280;15980;51.092;13.916;2022-11-30T00:09:08;99226.59;;;3.89;80.82
27864;BME280;15980;51.092;13.916;2022-11-30T00:14:16;99217.06;;;3.97;80.43
27864;BME280;15980;51.092;13.916;2022-11-30T00:19:21;99221.41;;;3.98;80.12
27864;BME280;15980;51.092;13.916;2022-11-30T00:24:26;99220.84;;;4.01;80.56
27864;BME280;15980;51.092;13.916;2022-11-30T00:29:33;99220.78;;;4.06;80.29
27864;BME280;15980;51.092;13.916;2022-11-30T00:34:38;99223.53;;;4.01;80.13
27864;BME280;15980;51.092;13.916;2022-11-30T00:39:43;99234.88;;;4.08;79.69
27864;BME280;15980;51.092;13.916;2022-11-30T00:44:51;99228.88;;;4.11;79.94
27864;BME280;15980;51.092;13.916;2022-11-30T00:49:55;99225.66;;;4.09;79.49
27864;BME280;15980;51.092;13.916;2022-11-30T00:55:00;99231.88;;;4.09;79.38
27864;BME280;15980;51.092;13.916;2022-11-30T01:00:09;99226.22;;;4.06;79.16
27864;BME280;15980;51.092;13.916;2022-11-30T01:05:14;99219.94;;;4.10;79.85
27864;BME280;15980;51.092;13.916;2022-11-30T01:10:19;99220.22;;;4.09;79.69
27864;BME280;15980;51.092;13.916;2022-11-30T01:15:27;99226.16;;;4.11;79.49
27864;BME280;15980;51.092;13.916;2022-11-30T01:20:32;99227.03;;;4.06;79.81
27864;BME280;15980;51.092;13.916;2022-11-30T01:25:37;99228.41;;;4.04;79.56
27864;BME280;15980;51.092;13.916;2022-11-30T01:30:54;99226.44;;;4.09;79.63
27864;BME280;15980;51.092;13.916;2022-11-30T01:36:01;99221.59;;;4.06;79.65
27864;BME280;15980;51.092;13.916;2022-11-30T01:41:08;99224.31;;;4.06;79.60
27864;BME280;15980;51.092;13.916;2022-11-30T01:46:25;99228.13;;;4.05;79.21
27864;BME280;15980;51.092;13.916;2022-11-30T01:51:35;99227.88;;;4.02;79.72
27864;BME280;15980;51.092;13.916;2022-11-30T01:56:44;99223.63;;;3.91;80.07
27864;BME280;15980;51.092;13.916;2022-11-30T02:01:53;99227.97;;;3.87;80.20
27864;BME280;15980;51.092;13.916;2022-11-30T02:07:00;99231.31;;;3.78;79.66
27864;BME280;15980;51.092;13.916;2022-11-30T02:12:09;99230.81;;;3.71;80.25
27864;BME280;15980;51.092;13.916;2022-11-30T02:17:27;99232.47;;;3.67;80.99
27864;BME280;15980;51.092;13.916;2022-11-30T02:22:45;99228.50;;;3.55;80.90
27864;BME280;15980;51.092;13.916;2022-11-30T02:28:04;99233.19;;;3.39;81.35
27864;BME280;15980;51.092;13.916;2022-11-30T02:33:17;99236.25;;;3.22;81.63
27864;BME280;15980;51.092;13.916;2022-11-30T02:38:25;99247.47;;;3.05;82.59
27864;BME280;15980;51.092;13.916;2022-11-30T02:43:31;99245.28;;;3.02;82.11
27864;BME280;15980;51.092;13.916;2022-11-30T02:48:44;99245.03;;;2.99;82.44
27864;BME280;15980;51.092;13.916;2022-11-30T02:53:51;99245.31;;;2.92;82.75
27864;BME280;15980;51.092;13.916;2022-11-30T02:58:56;99250.22;;;2.85;83.73
27864;BME280;15980;51.092;13.916;2022-11-30T03:04:04;99251.63;;;2.77;82.94
27864;BME280;15980;51.092;13.916;2022-11-30T03:09:08;99258.94;;;2.72;83.78
27864;BME280;15980;51.092;13.916;2022-11-30T03:14:13;99257.88;;;2.68;84.43
27864;BME280;15980;51.092;13.916;2022-11-30T03:19:21;99260.06;;;2.61;84.58
27864;BME280;15980;51.092;13.916;2022-11-30T03:24:26;99257.88;;;2.52;84.80
27864;BME280;15980;51.092;13.916;2022-11-30T03:29:31;99259.25;;;2.45;85.34
27864;BME280;15980;51.092;13.916;2022-11-30T03:34:38;99263.88;;;2.44;85.81
27864;BME280;15980;51.092;13.916;2022-11-30T03:39:43;99269.28;;;2.39;85.78
27864;BME280;15980;51.092;13.916;2022-11-30T03:44:48;99259.81;;;2.32;85.76
27864;BME280;15980;51.092;13.916;2022-11-30T03:49:55;99260.91;;;2.26;85.87
27864;BME280;15980;51.092;13.916;2022-11-30T03:55:00;99270.94;;;2.20;85.89
27864;BME280;15980;51.092;13.916;2022-11-30T04:00:06;99272.00;;;2.14;85.97
27864;BME280;15980;51.092;13.916;2022-11-30T04:05:14;99261.72;;;2.11;86.29
27864;BME280;15980;51.092;13.916;2022-11-30T04:10:23;99267.41;;;2.04;86.33
27864;BME280;15980;51.092;13.916;2022-11-30T04:15:28;99270.66;;;2.01;86.45
27864;BME280;15980;51.092;13.916;2022-11-30T04:20:35;99272.53;;;2.01;86.91
27864;BME280;15980;51.092;13.916;2022-11-30T04:25:41;99269.28;;;2.04;86.90
27864;BME280;15980;51.092;13.916;2022-11-30T04:30:46;99268.75;;;2.02;86.67
27864;BME280;15980;51.092;13.916;2022-11-30T04:35:57;99275.78;;;1.98;86.47
27864;BME280;15980;51.092;13.916;2022-11-30T04:41:05;99268.22;;;1.95;86.90
27864;BME280;15980;51.092;13.916;2022-11-30T04:46:11;99268.75;;;1.92;86.57
27864;BME280;15980;51.092;13.916;2022-11-30T04:51:18;99274.97;;;1.92;86.37
27864;BME280;15980;51.092;13.916;2022-11-30T04:56:23;99279.59;;;1.92;86.44
27864;BME280;15980;51.092;13.916;2022-11-30T05:01:28;99284.44;;;1.84;86.47
27864;BME280;15980;51.092;13.916;2022-11-30T05:06:36;99294.19;;;1.80;86.20
27864;BME280;15980;51.092;13.916;2022-11-30T05:11:40;99304.47;;;1.78;86.30
27864;BME280;15980;51.092;13.916;2022-11-30T05:16:47;99301.72;;;1.68;86.32
27864;BME280;15980;51.092;13.916;2022-11-30T05:21:55;99308.47;;;1.66;86.67
27864;BME280;15980;51.092;13.916;2022-11-30T05:27:00;99308.47;;;1.61;87.17
27864;BME280;15980;51.092;13.916;2022-11-30T05:32:07;99319.00;;;1.62;87.42
27864;BME280;15980;51.092;13.916;2022-11-30T05:37:14;99314.94;;;1.60;87.91
27864;BME280;15980;51.092;13.916;2022-11-30T05:42:19;99326.56;;;1.55;87.56
27864;BME280;15980;51.092;13.916;2022-11-30T05:47:24;99327.66;;;1.54;87.61
27864;BME280;15980;51.092;13.916;2022-11-30T05:52:31;99329.28;;;1.55;88.22
27864;BME280;15980;51.092;13.916;2022-11-30T05:57:37;99334.41;;;1.51;88.55
27864;BME280;15980;51.092;13.916;2022-11-30T06:02:42;99331.44;;;1.53;88.36
27864;BME280;15980;51.092;13.916;2022-11-30T06:07:49;99336.84;;;1.53;88.38
27864;BME280;15980;51.092;13.916;2022-11-30T06:12:54;99334.94;;;1.53;89.20
27864;BME280;15980;51.092;13.916;2022-11-30T06:17:59;99340.34;;;1.48;88.36
27864;BME280;15980;51.092;13.916;2022-11-30T06:23:06;99346.81;;;1.42;88.47
27864;BME280;15980;51.092;13.916;2022-11-30T06:28:11;99353.03;;;1.38;88.75
27864;BME280;15980;51.092;13.916;2022-11-30T06:33:20;99345.97;;;1.32;88.65
27864;BME280;15980;51.092;13.916;2022-11-30T06:38:28;99354.03;;;1.26;89.00
27864;BME280;15980;51.092;13.916;2022-11-30T06:43:33;99353.19;;;1.21;88.83
27864;BME280;15980;51.092;13.916;2022-11-30T06:48:38;99348.88;;;1.20;89.01
27864;BME280;15980;51.092;13.916;2022-11-30T06:53:46;99370.19;;;1.16;89.15
27864;BME280;15980;51.092;13.916;2022-11-30T06:58:51;99358.31;;;1.17;89.80
27864;BME280;15980;51.092;13.916;2022-11-30T07:03:56;99367.22;;;1.18;89.18
27864;BME280;15980;51.092;13.916;2022-11-30T07:09:03;99371.81;;;1.17;89.09
27864;BME280;15980;51.092;13.916;2022-11-30T07:14:08;99378.84;;;1.18;89.56
27864;BME280;15980;51.092;13.916;2022-11-30T07:19:13;99382.63;;;1.17;89.53
27864;BME280;15980;51.092;13.916;2022-11-30T07:24:21;99385.06;;;1.19;88.78
27864;BME280;15980;51.092;13.916;2022-11-30T07:29:39;99389.69;;;1.23;89.89
27864;BME280;15980;51.092;13.916;2022-11-30T07:34:44;99388.09;;;1.27;89.66
27864;BME280;15980;51.092;13.916;2022-11-30T07:39:52;99391.13;;;1.31;89.08
27864;BME280;15980;51.092;13.916;2022-11-30T07:44:57;99384.38;;;1.34;89.12
27864;BME280;15980;51.092;13.916;2022-11-30T07:50:06;99397.41;;;1.47;89.22
27864;BME280;15980;51.092;13.916;2022-11-30T07:55:13;99389.31;;;1.57;88.85
27864;BME280;15980;51.092;13.916;2022-11-30T08:00:20;99387.44;;;1.63;88.22
27864;BME280;15980;51.092;13.916;2022-11-30T08:05:25;99386.72;;;1.77;88.81
27864;BME280;15980;51.092;13.916;2022-11-30T08:10:34;99388.09;;;1.95;87.99
27864;BME280;15980;51.092;13.916;2022-11-30T08:15:39;99387.59;;;2.08;87.84
27864;BME280;15980;51.092;13.916;2022-11-30T08:20:44;99389.53;;;2.18;86.90
27864;BME280;15980;51.092;13.916;2022-11-30T08:25:53;99393.59;;;2.31;85.85
27864;BME280;15980;51.092;13.916;2022-11-30T08:30:58;99397.38;;;2.40;84.99
27864;BME280;15980;51.092;13.916;2022-11-30T08:36:05;99409.03;;;2.50;85.67
27864;BME280;15980;51.092;13.916;2022-11-30T08:41:16;99422.84;;;2.54;84.62
27864;BME280;15980;51.092;13.916;2022-11-30T08:46:23;99420.97;;;2.55;84.86
27864;BME280;15980;51.092;13.916;2022-11-30T08:51:48;99419.63;;;2.67;84.27
27864;BME280;15980;51.092;13.916;2022-11-30T08:57:17;99425.31;;;2.86;84.01
27864;BME280;15980;51.092;13.916;2022-11-30T09:02:22;99438.31;;;2.84;84.07
27864;BME280;15980;51.092;13.916;2022-11-30T09:07:27;99434.53;;;2.90;83.52
27864;BME280;15980;51.092;13.916;2022-11-30T09:12:36;99436.41;;;3.00;82.47
27864;BME280;15980;51.092;13.916;2022-11-30T09:17:42;99435.84;;;3.23;82.74
27864;BME280;15980;51.092;13.916;2022-11-30T09:22:47;99432.84;;;3.30;82.24
27864;BME280;15980;51.092;13.916;2022-11-30T09:27:54;99438.28;;;3.30;81.86
27864;BME280;15980;51.092;13.916;2022-11-30T09:32:59;99439.06;;;3.35;81.62
27864;BME280;15980;51.092;13.916;2022-11-30T09:38:04;99447.72;;;3.53;80.51
27864;BME280;15980;51.092;13.916;2022-11-30T09:43:19;99445.28;;;3.56;80.50
27864;BME280;15980;51.092;13.916;2022-11-30T09:48:36;99449.28;;;3.74;80.50
27864;BME280;15980;51.092;13.916;2022-11-30T09:53:50;99450.09;;;3.74;79.24
27864;BME280;15980;51.092;13.916;2022-11-30T09:59:02;99451.69;;;3.91;79.87
27864;BME280;15980;51.092;13.916;2022-11-30T10:04:20;99445.16;;;3.92;78.97
27864;BME280;15980;51.092;13.916;2022-11-30T10:09:31;99446.69;;;4.08;79.17
27864;BME280;15980;51.092;13.916;2022-11-30T10:20:27;99445.53;;;4.24;78.27
27864;BME280;15980;51.092;13.916;2022-11-30T10:25:46;99444.09;;;4.37;77.84
27864;BME280;15980;51.092;13.916;2022-11-30T10:30:58;99440.28;;;4.38;78.28
27864;BME280;15980;51.092;13.916;2022-11-30T10:36:08;99443.78;;;4.44;76.78
27864;BME280;15980;51.092;13.916;2022-11-30T10:41:17;99433.97;;;4.48;77.67
27864;BME280;15980;51.092;13.916;2022-11-30T10:46:32;99430.06;;;4.64;76.68
27864;BME280;15980;51.092;13.916;2022-11-30T10:51:39;99435.53;;;4.59;76.33
27864;BME280;15980;51.092;13.916;2022-11-30T10:56:46;99440.97;;;4.59;76.72
27864;BME280;15980;51.092;13.916;2022-11-30T11:01:54;99440.72;;;4.55;76.91
27864;BME280;15980;51.092;13.916;2022-11-30T11:07:07;99436.00;;;4.66;76.25
27864;BME280;15980;51.092;13.916;2022-11-30T11:12:15;99434.88;;;4.72;76.13
27864;BME280;15980;51.092;13.916;2022-11-30T11:17:24;99437.88;;;4.70;75.79
27864;BME280;15980;51.092;13.916;2022-11-30T11:22:33;99445.03;;;4.61;75.54
27864;BME280;15980;51.092;13.916;2022-11-30T11:27:39;99430.25;;;4.78;75.96
27864;BME280;15980;51.092;13.916;2022-11-30T11:32:59;99435.81;;;4.91;75.23
27864;BME280;15980;51.092;13.916;2022-11-30T11:38:18;99430.81;;;5.03;74.30
27864;BME280;15980;51.092;13.916;2022-11-30T11:43:25;99422.19;;;4.96;74.46
27864;BME280;15980;51.092;13.916;2022-11-30T11:48:38;99419.03;;;5.13;73.98
27864;BME280;15980;51.092;13.916;2022-11-30T11:53:47;99428.44;;;5.26;73.75
27864;BME280;15980;51.092;13.916;2022-11-30T11:58:58;99418.38;;;5.26;74.19
27864;BME280;15980;51.092;13.916;2022-11-30T12:04:15;99425.66;;;5.31;72.84
27864;BME280;15980;51.092;13.916;2022-11-30T12:09:27;99426.31;;;5.23;73.87
27864;BME280;15980;51.092;13.916;2022-11-30T12:14:34;99419.25;;;5.22;73.38
27864;BME280;15980;51.092;13.916;2022-11-30T12:19:48;99416.97;;;5.00;72.87
27864;BME280;15980;51.092;13.916;2022-11-30T12:25:15;99430.50;;;4.76;73.52
27864;BME280;15980;51.092;13.916;2022-11-30T12:30:25;99422.38;;;4.71;74.65
27864;BME280;15980;51.092;13.916;2022-11-30T12:35:42;99427.09;;;4.60;74.46
27864;BME280;15980;51.092;13.916;2022-11-30T12:40:54;99427.41;;;4.54;74.99
27864;BME280;15980;51.092;13.916;2022-11-30T12:46:11;99426.34;;;4.50;76.04
27864;BME280;15980;51.092;13.916;2022-11-30T12:51:28;99423.59;;;4.55;76.47
27864;BME280;15980;51.092;13.916;2022-11-30T12:56:41;99413.13;;;4.72;76.21
27864;BME280;15980;51.092;13.916;2022-11-30T13:02:13;99415.66;;;4.97;75.41
27864;BME280;15980;51.092;13.916;2022-11-30T13:07:28;99414.50;;;5.03;74.39
27864;BME280;15980;51.092;13.916;2022-11-30T13:12:37;99421.63;;;4.99;73.86
27864;BME280;15980;51.092;13.916;2022-11-30T13:17:45;99410.22;;;4.97;73.20
27864;BME280;15980;51.092;13.916;2022-11-30T13:22:59;99409.72;;;4.90;73.31
27864;BME280;15980;51.092;13.916;2022-11-30T13:28:13;99417.41;;;4.83;73.79
27864;BME280;15980;51.092;13.916;2022-11-30T13:33:45;99417.75;;;4.71;73.62
27864;BME280;15980;51.092;13.916;2022-11-30T13:44:24;99427.50;;;4.44;75.10
27864;BME280;15980;51.092;13.916;2022-11-30T13:49:39;99430.81;;;4.35;75.69
27864;BME280;15980;51.092;13.916;2022-11-30T13:54:46;99428.66;;;4.27;75.89
27864;BME280;15980;51.092;13.916;2022-11-30T14:00:01;99433.59;;;4.20;76.44
27864;BME280;15980;51.092;13.916;2022-11-30T14:05:22;99437.16;;;4.16;76.40
27864;BME280;15980;51.092;13.916;2022-11-30T14:10:31;99442.91;;;4.09;76.63
27864;BME280;15980;51.092;13.916;2022-11-30T14:15:56;99442.38;;;4.07;76.98
27864;BME280;15980;51.092;13.916;2022-11-30T14:21:12;99447.00;;;4.01;77.50
27864;BME280;15980;51.092;13.916;2022-11-30T14:26:23;99447.56;;;3.98;77.91
27864;BME280;15980;51.092;13.916;2022-11-30T14:31:38;99439.41;;;3.98;78.26
27864;BME280;15980;51.092;13.916;2022-11-30T14:36:57;99456.56;;;3.94;78.36
27864;BME280;15980;51.092;13.916;2022-11-30T14:42:17;99442.44;;;3.92;78.63
27864;BME280;15980;51.092;13.916;2022-11-30T14:47:30;99444.06;;;3.93;78.91
27864;BME280;15980;51.092;13.916;2022-11-30T14:52:48;99450.88;;;3.90;79.06
27864;BME280;15980;51.092;13.916;2022-11-30T14:58:09;99450.53;;;4.02;79.41
27864;BME280;15980;51.092;13.916;2022-11-30T15:03:24;99443.94;;;4.13;79.39
27864;BME280;15980;51.092;13.916;2022-11-30T15:08:34;99445.00;;;4.22;79.34
27864;BME280;15980;51.092;13.916;2022-11-30T15:13:45;99445.19;;;4.31;79.46
27864;BME280;15980;51.092;13.916;2022-11-30T15:18:55;99448.41;;;4.43;79.08
27864;BME280;15980;51.092;13.916;2022-11-30T15:24:01;99446.75;;;4.47;79.16
27864;BME280;15980;51.092;13.916;2022-11-30T15:29:08;99450.28;;;4.48;79.51
27864;BME280;15980;51.092;13.916;2022-11-30T15:34:26;99460.59;;;4.51;79.13
27864;BME280;15980;51.092;13.916;2022-11-30T15:39:34;99456.78;;;4.52;78.93
27864;BME280;15980;51.092;13.916;2022-11-30T15:44:44;99461.66;;;4.55;78.69
27864;BME280;15980;51.092;13.916;2022-11-30T15:49:57;99457.88;;;4.51;78.87
27864;BME280;15980;51.092;13.916;2022-11-30T15:55:38;99465.00;;;4.41;78.30
27864;BME280;15980;51.092;13.916;2022-11-30T16:00:32;99463.41;;;4.30;78.53
27864;BME280;15980;51.092;13.916;2022-11-30T16:05:54;99467.25;;;4.24;79.00
27864;BME280;15980;51.092;13.916;2022-11-30T16:11:04;99462.97;;;4.13;80.46
27864;BME280;15980;51.092;13.916;2022-11-30T16:16:11;99463.31;;;4.01;81.29
27864;BME280;15980;51.092;13.916;2022-11-30T16:21:21;99464.16;;;3.92;82.23
27864;BME280;15980;51.092;13.916;2022-11-30T16:26:26;99468.50;;;3.93;82.67
27864;BME280;15980;51.092;13.916;2022-11-30T16:31:54;99471.47;;;3.86;83.59
27864;BME280;15980;51.092;13.916;2022-11-30T16:37:06;99474.78;;;3.78;83.53
27864;BME280;15980;51.092;13.916;2022-11-30T16:42:15;99475.31;;;3.80;83.96
27864;BME280;15980;51.092;13.916;2022-11-30T16:47:21;99468.84;;;3.71;84.19
27864;BME280;15980;51.092;13.916;2022-11-30T16:52:30;99469.09;;;3.69;84.59
27864;BME280;15980;51.092;13.916;2022-11-30T16:57:37;99475.38;;;3.65;84.36
27864;BME280;15980;51.092;13.916;2022-11-30T17:02:47;99475.69;;;3.53;85.10
27864;BME280;15980;51.092;13.916;2022-11-30T17:07:56;99475.13;;;3.51;84.98
27864;BME280;15980;51.092;13.916;2022-11-30T17:13:02;99484.38;;;3.50;85.17
27864;BME280;15980;51.092;13.916;2022-11-30T17:18:09;99482.75;;;3.49;85.17
27864;BME280;15980;51.092;13.916;2022-11-30T17:23:17;99497.91;;;3.45;84.96
27864;BME280;15980;51.092;13.916;2022-11-30T17:28:25;99498.19;;;3.43;85.86
27864;BME280;15980;51.092;13.916;2022-11-30T17:33:31;99503.09;;;3.31;85.92
27864;BME280;15980;51.092;13.916;2022-11-30T17:38:41;99497.41;;;3.28;85.96
27864;BME280;15980;51.092;13.916;2022-11-30T17:43:47;99508.25;;;3.18;86.08
27864;BME280;15980;51.092;13.916;2022-11-30T17:48:54;99519.94;;;3.13;86.36
27864;BME280;15980;51.092;13.916;2022-11-30T17:54:03;99522.91;;;3.06;86.85
27864;BME280;15980;51.092;13.916;2022-11-30T17:59:13;99522.88;;;3.01;86.94
27864;BME280;15980;51.092;13.916;2022-11-30T18:04:28;99527.75;;;2.84;86.42
27864;BME280;15980;51.092;13.916;2022-11-30T18:09:38;99534.53;;;2.81;86.86
27864;BME280;15980;51.092;13.916;2022-11-30T18:14:45;99537.22;;;2.71;87.13
27864;BME280;15980;51.092;13.916;2022-11-30T18:19:54;99549.41;;;2.64;87.40
27864;BME280;15980;51.092;13.916;2022-11-30T18:25:05;99555.84;;;2.42;88.47
27864;BME280;15980;51.092;13.916;2022-11-30T18:30:13;99552.25;;;2.27;89.07
27864;BME280;15980;51.092;13.916;2022-11-30T18:35:20;99554.44;;;2.30;89.19
27864;BME280;15980;51.092;13.916;2022-11-30T18:40:28;99556.34;;;2.29;88.84
27864;BME280;15980;51.092;13.916;2022-11-30T18:45:42;99563.09;;;2.27;89.31
27864;BME280;15980;51.092;13.916;2022-11-30T18:50:49;99563.94;;;2.32;89.22
27864;BME280;15980;51.092;13.916;2022-11-30T18:56:06;99568.25;;;2.28;88.95
27864;BME280;15980;51.092;13.916;2022-11-30T19:01:16;99582.84;;;2.22;87.95
27864;BME280;15980;51.092;13.916;2022-11-30T19:06:23;99577.63;;;2.15;88.55
27864;BME280;15980;51.092;13.916;2022-11-30T19:11:35;99580.28;;;2.00;88.86
27864;BME280;15980;51.092;13.916;2022-11-30T19:16:42;99582.75;;;2.07;88.94
27864;BME280;15980;51.092;13.916;2022-11-30T19:21:48;99581.13;;;2.06;88.83
27864;BME280;15980;51.092;13.916;2022-11-30T19:26:57;99585.44;;;2.07;88.62
27864;BME280;15980;51.092;13.916;2022-11-30T19:32:03;99582.41;;;1.93;88.76
27864;BME280;15980;51.092;13.916;2022-11-30T19:37:09;99582.97;;;1.95;89.11
27864;BME280;15980;51.092;13.916;2022-11-30T19:42:17;99577.03;;;1.98;89.58
27864;BME280;15980;51.092;13.916;2022-11-30T19:47:22;99588.31;;;1.85;88.25
27864;BME280;15980;51.092;13.916;2022-11-30T19:52:28;99594.09;;;1.62;89.43
27864;BME280;15980;51.092;13.916;2022-11-30T19:57:36;99593.81;;;1.58;90.14
27864;BME280;15980;51.092;13.916;2022-11-30T20:02:42;99600.63;;;1.66;90.60
27864;BME280;15980;51.092;13.916;2022-11-30T20:07:50;99600.44;;;1.77;90.47
27864;BME280;15980;51.092;13.916;2022-11-30T20:12:58;99603.16;;;1.77;90.22
27864;BME280;15980;51.092;13.916;2022-11-30T20:18:04;99606.41;;;1.79;90.29
27864;BME280;15980;51.092;13.916;2022-11-30T20:23:10;99601.91;;;1.58;89.92
27864;BME280;15980;51.092;13.916;2022-11-30T20:28:18;99606.25;;;1.59;90.75
27864;BME280;15980;51.092;13.916;2022-11-30T20:33:25;99619.22;;;1.57;91.21
27864;BME280;15980;51.092;13.916;2022-11-30T20:38:32;99620.41;;;1.71;90.90
27864;BME280;15980;51.092;13.916;2022-11-30T20:43:41;99610.91;;;1.69;90.17
27864;BME280;15980;51.092;13.916;2022-11-30T20:48:50;99613.00;;;1.56;89.64
27864;BME280;15980;51.092;13.916;2022-11-30T20:53:56;99614.06;;;1.55;89.94
27864;BME280;15980;51.092;13.916;2022-11-30T20:59:05;99625.69;;;1.56;89.95
27864;BME280;15980;51.092;13.916;2022-11-30T21:04:10;99618.25;;;1.36;90.05
27864;BME280;15980;51.092;13.916;2022-11-30T21:09:17;99620.53;;;1.22;91.15
27864;BME280;15980;51.092;13.916;2022-11-30T21:14:25;99618.34;;;1.19;91.76
27864;BME280;15980;51.092;13.916;2022-11-30T21:19:30;99619.06;;;1.37;91.30
27864;BME280;15980;51.092;13.916;2022-11-30T21:24:35;99632.06;;;1.13;90.62
27864;BME280;15980;51.092;13.916;2022-11-30T21:29:43;99638.09;;;1.20;91.15
27864;BME280;15980;51.092;13.916;2022-11-30T21:34:48;99640.56;;;0.94;91.47
27864;BME280;15980;51.092;13.916;2022-11-30T21:39:52;99640.84;;;0.98;92.34
27864;BME280;15980;51.092;13.916;2022-11-30T21:45:00;99638.41;;;0.97;91.86
27864;BME280;15980;51.092;13.916;2022-11-30T21:50:06;99641.47;;;1.05;91.42
27864;BME280;15980;51.092;13.916;2022-11-30T21:55:11;99654.06;;;0.94;91.82
27864;BME280;15980;51.092;13.916;2022-11-30T22:00:20;99651.22;;;1.06;91.23
27864;BME280;15980;51.092;13.916;2022-11-30T22:05:25;99645.81;;;1.06;91.50
27864;BME280;15980;51.092;13.916;2022-11-30T22:10:30;99640.50;;;1.16;91.12
27864;BME280;15980;51.092;13.916;2022-11-30T22:15:38;99640.75;;;1.15;90.72
27864;BME280;15980;51.092;13.916;2022-11-30T22:20:42;99643.09;;;1.06;90.78
27864;BME280;15980;51.092;13.916;2022-11-30T22:25:48;99650.38;;;1.06;91.16
27864;BME280;15980;51.092;13.916;2022-11-30T22:30:55;99652.63;;;1.14;91.07
27864;BME280;15980;51.092;13.916;2022-11-30T22:36:00;99653.28;;;1.26;91.44
27864;BME280;15980;51.092;13.916;2022-11-30T22:41:06;99647.63;;;1.27;90.89
27864;BME280;15980;51.092;13.916;2022-11-30T22:46:16;99645.00;;;1.33;90.46
27864;BME280;15980;51.092;13.916;2022-11-30T22:51:22;99646.25;;;1.25;90.88
27864;BME280;15980;51.092;13.916;2022-11-30T22:56:29;99650.19;;;1.12;90.46
27864;BME280;15980;51.092;13.916;2022-11-30T23:01:38;99642.31;;;1.11;91.18
27864;BME280;15980;51.092;13.916;2022-11-30T23:06:46;99641.31;;;1.17;91.33
27864;BME280;15980;51.092;13.916;2022-11-30T23:11:51;99627.84;;;1.22;90.89
27864;BME280;15980;51.092;13.916;2022-11-30T23:16:59;99635.69;;;1.23;91.24
27864;BME280;15980;51.092;13.916;2022-11-30T23:22:03;99644.00;;;1.17;90.03
27864;BME280;15980;51.092;13.916;2022-11-30T23:27:08;99642.13;;;1.17;90.06
27864;BME280;15980;51.092;13.916;2022-11-30T23:32:16;99640.91;;;1.30;91.34
27864;BME280;15980;51.092;13.916;2022-11-30T23:37:21;99633.66;;;1.36;90.75
27864;BME280;15980;51.092;13.916;2022-11-30T23:42:25;99630.66;;;1.32;89.94
27864;BME280;15980;51.092;13.916;2022-11-30T23:47:33;99626.81;;;1.28;89.87
27864;BME280;15980;51.092;13.916;2022-11-30T23:52:38;99617.66;;;1.02;90.29
27864;BME280;15980;51.092;13.916;2022-11-30T23:57:43;99617.31;;;1.25;91.31
